sensor_id;sensor_type;location;lat;lon;timestamp;pressure;altitude;pressure_sealevel;temperature;humidity
77216;BME280;66210;53.282;9.864;2023-08-08T00:01:20;100391.75;;;12.46;80.74
77216;BME280;66210;53.282;9.864;2023-08-08T00:03:48;100401.28;;;12.52;80.82
77216;BME280;66210;53.282;9.864;2023-08-08T00:06:14;100398.78;;;12.53;80.99
77216;BME280;66210;53.282;9.864;2023-08-08T00:08:41;100386.00;;;12.52;81.32
77216;BME280;66210;53.282;9.864;2023-08-08T00:11:07;100400.66;;;12.59;80.39
77216;BME280;66210;53.282;9.864;2023-08-08T00:13:34;100394.88;;;12.64;80.90
77216;BME280;66210;53.282;9.864;2023-08-08T00:16:01;100379.56;;;12.63;81.52
77216;BME280;66210;53.282;9.864;2023-08-08T00:18:29;100388.94;;;12.64;81.41
77216;BME280;66210;53.282;9.864;2023-08-08T00:20:55;100376.16;;;12.62;81.83
77216;BME280;66210;53.282;9.864;2023-08-08T00:23:22;100378.88;;;12.68;80.84
77216;BME280;66210;53.282;9.864;2023-08-08T00:25:48;100364.16;;;12.60;81.77
77216;BME280;66210;53.282;9.864;2023-08-08T00:28:17;100377.22;;;12.69;81.13
77216;BME280;66210;53.282;9.864;2023-08-08T00:30:44;100367.69;;;12.63;81.64
77216;BME280;66210;53.282;9.864;2023-08-08T00:33:11;100386.72;;;12.75;81.64
77216;BME280;66210;53.282;9.864;2023-08-08T00:35:37;100381.63;;;12.75;81.33
77216;BME280;66210;53.282;9.864;2023-08-08T00:38:04;100383.31;;;12.74;82.24
77216;BME280;66210;53.282;9.864;2023-08-08T00:40:30;100376.53;;;12.75;82.38
77216;BME280;66210;53.282;9.864;2023-08-08T00:42:57;100373.19;;;12.77;81.73
77216;BME280;66210;53.282;9.864;2023-08-08T00:45:23;100376.59;;;12.78;82.57
77216;BME280;66210;53.282;9.864;2023-08-08T00:47:50;100371.44;;;12.75;81.85
77216;BME280;66210;53.282;9.864;2023-08-08T00:50:17;100368.06;;;12.76;82.30
77216;BME280;66210;53.282;9.864;2023-08-08T00:52:44;100373.31;;;12.80;81.75
77216;BME280;66210;53.282;9.864;2023-08-08T00:55:11;100373.34;;;12.82;82.12
77216;BME280;66210;53.282;9.864;2023-08-08T00:57:38;100369.88;;;12.80;82.54
77216;BME280;66210;53.282;9.864;2023-08-08T01:00:06;100367.44;;;12.83;82.59
77216;BME280;66210;53.282;9.864;2023-08-08T01:02:35;100370.78;;;12.80;82.30
77216;BME280;66210;53.282;9.864;2023-08-08T01:05:03;100371.63;;;12.81;82.94
77216;BME280;66210;53.282;9.864;2023-08-08T01:07:43;100362.22;;;12.78;83.26
77216;BME280;66210;53.282;9.864;2023-08-08T01:10:21;100368.22;;;12.80;83.00
77216;BME280;66210;53.282;9.864;2023-08-08T01:12:53;100373.34;;;12.82;83.50
77216;BME280;66210;53.282;9.864;2023-08-08T01:15:22;100354.31;;;12.71;83.50
77216;BME280;66210;53.282;9.864;2023-08-08T01:17:49;100377.59;;;12.81;83.25
77216;BME280;66210;53.282;9.864;2023-08-08T01:20:18;100382.75;;;12.83;84.00
77216;BME280;66210;53.282;9.864;2023-08-08T01:23:01;100354.69;;;12.83;84.22
77216;BME280;66210;53.282;9.864;2023-08-08T01:25:30;100367.38;;;12.81;84.06
77216;BME280;66210;53.282;9.864;2023-08-08T01:28:00;100369.34;;;12.90;83.67
77216;BME280;66210;53.282;9.864;2023-08-08T01:30:28;100355.78;;;12.91;83.44
77216;BME280;66210;53.282;9.864;2023-08-08T01:32:55;100370.31;;;12.94;83.84
77216;BME280;66210;53.282;9.864;2023-08-08T01:35:23;100366.88;;;12.93;83.44
77216;BME280;66210;53.282;9.864;2023-08-08T01:37:54;100355.78;;;12.91;84.21
77216;BME280;66210;53.282;9.864;2023-08-08T01:40:25;100347.19;;;12.87;85.09
77216;BME280;66210;53.282;9.864;2023-08-08T01:42:52;100349.53;;;12.81;85.56
77216;BME280;66210;53.282;9.864;2023-08-08T01:45:20;100347.78;;;12.79;85.82
77216;BME280;66210;53.282;9.864;2023-08-08T01:47:50;100336.56;;;12.74;86.04
77216;BME280;66210;53.282;9.864;2023-08-08T01:50:17;100346.78;;;12.74;86.17
77216;BME280;66210;53.282;9.864;2023-08-08T01:52:44;100346.72;;;12.72;86.69
77216;BME280;66210;53.282;9.864;2023-08-08T01:55:10;100337.88;;;12.61;86.28
77216;BME280;66210;53.282;9.864;2023-08-08T01:57:37;100352.59;;;12.69;87.17
77216;BME280;66210;53.282;9.864;2023-08-08T02:00:05;100342.38;;;12.69;85.84
77216;BME280;66210;53.282;9.864;2023-08-08T02:02:32;100338.81;;;12.64;86.92
77216;BME280;66210;53.282;9.864;2023-08-08T02:04:59;100349.97;;;12.68;86.09
77216;BME280;66210;53.282;9.864;2023-08-08T02:07:25;100352.59;;;12.69;86.32
77216;BME280;66210;53.282;9.864;2023-08-08T02:09:52;100349.91;;;12.65;86.48
77216;BME280;66210;53.282;9.864;2023-08-08T02:12:18;100349.06;;;12.66;86.55
77216;BME280;66210;53.282;9.864;2023-08-08T02:14:45;100332.81;;;12.62;87.15
77216;BME280;66210;53.282;9.864;2023-08-08T02:17:12;100331.91;;;12.60;87.64
77216;BME280;66210;53.282;9.864;2023-08-08T02:19:38;100335.19;;;12.56;87.23
77216;BME280;66210;53.282;9.864;2023-08-08T02:22:05;100340.22;;;12.55;88.24
77216;BME280;66210;53.282;9.864;2023-08-08T02:24:31;100339.50;;;12.59;87.73
77216;BME280;66210;53.282;9.864;2023-08-08T02:26:58;100343.69;;;12.57;87.32
77216;BME280;66210;53.282;9.864;2023-08-08T02:29:24;100347.91;;;12.56;87.50
77216;BME280;66210;53.282;9.864;2023-08-08T02:31:51;100327.28;;;12.48;88.10
77216;BME280;66210;53.282;9.864;2023-08-08T02:34:17;100332.38;;;12.48;88.65
77216;BME280;66210;53.282;9.864;2023-08-08T02:36:44;100325.34;;;12.41;87.86
77216;BME280;66210;53.282;9.864;2023-08-08T02:39:11;100323.00;;;12.47;89.03
77216;BME280;66210;53.282;9.864;2023-08-08T02:41:37;100318.78;;;12.48;87.57
77216;BME280;66210;53.282;9.864;2023-08-08T02:44:04;100298.31;;;12.45;87.98
77216;BME280;66210;53.282;9.864;2023-08-08T02:46:30;100307.09;;;12.55;88.24
77216;BME280;66210;53.282;9.864;2023-08-08T02:48:57;100318.06;;;12.52;88.13
77216;BME280;66210;53.282;9.864;2023-08-08T02:51:23;100319.94;;;12.58;88.70
77216;BME280;66210;53.282;9.864;2023-08-08T02:53:50;100310.50;;;12.55;87.59
77216;BME280;66210;53.282;9.864;2023-08-08T02:56:16;100327.63;;;12.59;88.54
77216;BME280;66210;53.282;9.864;2023-08-08T02:58:43;100317.41;;;12.58;88.13
77216;BME280;66210;53.282;9.864;2023-08-08T03:01:10;100317.41;;;12.58;88.20
77216;BME280;66210;53.282;9.864;2023-08-08T03:03:36;100319.03;;;12.56;88.40
77216;BME280;66210;53.282;9.864;2023-08-08T03:06:03;100319.78;;;12.53;87.67
77216;BME280;66210;53.282;9.864;2023-08-08T03:08:29;100305.31;;;12.52;88.43
77216;BME280;66210;53.282;9.864;2023-08-08T03:10:56;100299.25;;;12.48;88.82
77216;BME280;66210;53.282;9.864;2023-08-08T03:13:23;100306.16;;;12.51;88.04
77216;BME280;66210;53.282;9.864;2023-08-08T03:15:49;100308.63;;;12.50;88.61
77216;BME280;66210;53.282;9.864;2023-08-08T03:18:16;100293.28;;;12.48;88.73
77216;BME280;66210;53.282;9.864;2023-08-08T03:20:42;100277.63;;;12.36;88.48
77216;BME280;66210;53.282;9.864;2023-08-08T03:23:09;100281.25;;;12.44;88.07
77216;BME280;66210;53.282;9.864;2023-08-08T03:25:35;100293.22;;;12.46;88.74
77216;BME280;66210;53.282;9.864;2023-08-08T03:28:02;100294.84;;;12.43;88.60
77216;BME280;66210;53.282;9.864;2023-08-08T03:30:29;100300.78;;;12.43;89.04
77216;BME280;66210;53.282;9.864;2023-08-08T03:32:55;100292.28;;;12.43;88.71
77216;BME280;66210;53.282;9.864;2023-08-08T03:35:22;100287.06;;;12.38;89.20
77216;BME280;66210;53.282;9.864;2023-08-08T03:37:49;100290.53;;;12.42;88.87
77216;BME280;66210;53.282;9.864;2023-08-08T03:40:15;100289.75;;;12.43;88.55
77216;BME280;66210;53.282;9.864;2023-08-08T03:42:42;100289.81;;;12.46;88.90
77216;BME280;66210;53.282;9.864;2023-08-08T03:45:09;100285.56;;;12.45;88.61
77216;BME280;66210;53.282;9.864;2023-08-08T03:47:36;100284.72;;;12.46;88.91
77216;BME280;66210;53.282;9.864;2023-08-08T03:50:03;100283.88;;;12.45;88.29
77216;BME280;66210;53.282;9.864;2023-08-08T03:52:30;100279.56;;;12.43;89.09
77216;BME280;66210;53.282;9.864;2023-08-08T03:54:57;100261.47;;;12.35;88.07
77216;BME280;66210;53.282;9.864;2023-08-08T03:57:24;100272.69;;;12.40;88.79
77216;BME280;66210;53.282;9.864;2023-08-08T03:59:50;100251.19;;;12.32;88.74
77216;BME280;66210;53.282;9.864;2023-08-08T04:02:17;100265.84;;;12.39;88.79
77216;BME280;66210;53.282;9.864;2023-08-08T04:04:43;100268.50;;;12.42;88.53
77216;BME280;66210;53.282;9.864;2023-08-08T04:07:10;100264.22;;;12.41;89.31
77216;BME280;66210;53.282;9.864;2023-08-08T04:09:36;100260.81;;;12.41;88.66
77216;BME280;66210;53.282;9.864;2023-08-08T04:12:03;100258.16;;;12.38;89.34
77216;BME280;66210;53.282;9.864;2023-08-08T04:14:30;100264.97;;;12.39;88.90
77216;BME280;66210;53.282;9.864;2023-08-08T04:16:56;100266.88;;;12.44;88.24
77216;BME280;66210;53.282;9.864;2023-08-08T04:19:23;100272.91;;;12.48;88.40
77216;BME280;66210;53.282;9.864;2023-08-08T04:21:50;100263.53;;;12.47;88.71
77216;BME280;66210;53.282;9.864;2023-08-08T04:24:16;100276.50;;;12.55;88.11
77216;BME280;66210;53.282;9.864;2023-08-08T04:26:43;100276.44;;;12.53;88.35
77216;BME280;66210;53.282;9.864;2023-08-08T04:29:09;100280.88;;;12.59;88.13
77216;BME280;66210;53.282;9.864;2023-08-08T04:31:36;100275.06;;;12.63;88.97
77216;BME280;66210;53.282;9.864;2023-08-08T04:34:03;100274.28;;;12.65;88.11
77216;BME280;66210;53.282;9.864;2023-08-08T04:36:29;100257.94;;;12.59;88.32
77216;BME280;66210;53.282;9.864;2023-08-08T04:38:56;100270.09;;;12.67;88.02
77216;BME280;66210;53.282;9.864;2023-08-08T04:41:23;100262.47;;;12.67;89.00
77216;BME280;66210;53.282;9.864;2023-08-08T04:43:50;100280.50;;;12.75;88.90
77216;BME280;66210;53.282;9.864;2023-08-08T04:46:17;100269.47;;;12.75;88.39
77216;BME280;66210;53.282;9.864;2023-08-08T04:48:44;100266.19;;;12.79;88.71
77216;BME280;66210;53.282;9.864;2023-08-08T04:51:10;100267.13;;;12.82;87.82
77216;BME280;66210;53.282;9.864;2023-08-08T04:53:37;100263.69;;;12.80;88.41
77216;BME280;66210;53.282;9.864;2023-08-08T04:56:04;100260.31;;;12.81;87.58
77216;BME280;66210;53.282;9.864;2023-08-08T04:58:30;100267.19;;;12.84;88.05
77216;BME280;66210;53.282;9.864;2023-08-08T05:00:57;100266.25;;;12.82;87.14
77216;BME280;66210;53.282;9.864;2023-08-08T05:03:24;100262.94;;;12.84;87.62
77216;BME280;66210;53.282;9.864;2023-08-08T05:05:50;100270.72;;;12.89;87.05
77216;BME280;66210;53.282;9.864;2023-08-08T05:08:17;100270.88;;;12.94;87.27
77216;BME280;66210;53.282;9.864;2023-08-08T05:10:44;100272.66;;;12.96;86.78
77216;BME280;66210;53.282;9.864;2023-08-08T05:13:12;100270.13;;;12.98;87.46
77216;BME280;66210;53.282;9.864;2023-08-08T05:15:40;100275.34;;;13.02;86.87
77216;BME280;66210;53.282;9.864;2023-08-08T05:18:06;100267.75;;;13.04;87.19
77216;BME280;66210;53.282;9.864;2023-08-08T05:20:33;100273.94;;;13.12;86.74
77216;BME280;66210;53.282;9.864;2023-08-08T05:22:59;100265.59;;;13.18;86.33
77216;BME280;66210;53.282;9.864;2023-08-08T05:25:26;100265.72;;;13.22;86.47
77216;BME280;66210;53.282;9.864;2023-08-08T05:27:53;100259.97;;;13.28;86.80
77216;BME280;66210;53.282;9.864;2023-08-08T05:30:20;100261.78;;;13.34;85.95
77216;BME280;66210;53.282;9.864;2023-08-08T05:32:46;100264.44;;;13.37;85.85
77216;BME280;66210;53.282;9.864;2023-08-08T05:35:13;100260.19;;;13.37;85.57
77216;BME280;66210;53.282;9.864;2023-08-08T05:37:40;100261.97;;;13.40;86.19
77216;BME280;66210;53.282;9.864;2023-08-08T05:40:07;100252.59;;;13.39;85.82
77216;BME280;66210;53.282;9.864;2023-08-08T05:42:34;100232.81;;;13.30;86.34
77216;BME280;66210;53.282;9.864;2023-08-08T05:45:01;100263.84;;;13.45;86.85
77216;BME280;66210;53.282;9.864;2023-08-08T05:47:27;100264.72;;;13.47;86.34
77216;BME280;66210;53.282;9.864;2023-08-08T05:49:54;100256.06;;;13.42;87.32
77216;BME280;66210;53.282;9.864;2023-08-08T05:52:21;100263.00;;;13.46;86.80
77216;BME280;66210;53.282;9.864;2023-08-08T05:54:48;100263.00;;;13.46;87.47
77216;BME280;66210;53.282;9.864;2023-08-08T05:57:15;100268.28;;;13.52;86.60
77216;BME280;66210;53.282;9.864;2023-08-08T05:59:43;100264.06;;;13.55;87.10
77216;BME280;66210;53.282;9.864;2023-08-08T06:02:11;100257.16;;;13.50;86.96
77216;BME280;66210;53.282;9.864;2023-08-08T06:04:38;100265.88;;;13.59;87.30
77216;BME280;66210;53.282;9.864;2023-08-08T06:07:05;100259.09;;;13.59;87.41
77216;BME280;66210;53.282;9.864;2023-08-08T06:09:36;100273.66;;;13.63;86.66
77216;BME280;66210;53.282;9.864;2023-08-08T06:12:04;100258.97;;;13.56;87.23
77216;BME280;66210;53.282;9.864;2023-08-08T06:14:31;100259.28;;;13.67;86.82
77216;BME280;66210;53.282;9.864;2023-08-08T06:16:58;100264.47;;;13.70;86.83
77216;BME280;66210;53.282;9.864;2023-08-08T06:19:25;100252.59;;;13.72;86.39
77216;BME280;66210;53.282;9.864;2023-08-08T06:21:52;100261.25;;;13.79;85.83
77216;BME280;66210;53.282;9.864;2023-08-08T06:24:19;100252.84;;;13.81;86.18
77216;BME280;66210;53.282;9.864;2023-08-08T06:26:45;100264.13;;;13.91;86.20
77216;BME280;66210;53.282;9.864;2023-08-08T06:29:12;100252.97;;;13.87;86.11
77216;BME280;66210;53.282;9.864;2023-08-08T06:31:41;100265.09;;;13.96;85.91
77216;BME280;66210;53.282;9.864;2023-08-08T06:34:08;100254.81;;;13.93;85.51
77216;BME280;66210;53.282;9.864;2023-08-08T06:36:35;100264.41;;;14.02;85.58
77216;BME280;66210;53.282;9.864;2023-08-08T06:39:02;100267.94;;;14.07;85.28
77216;BME280;66210;53.282;9.864;2023-08-08T06:41:29;100257.81;;;14.11;85.48
77216;BME280;66210;53.282;9.864;2023-08-08T06:43:56;100243.44;;;14.15;85.29
77216;BME280;66210;53.282;9.864;2023-08-08T06:46:23;100259.03;;;14.27;85.22
77216;BME280;66210;53.282;9.864;2023-08-08T06:48:51;100240.44;;;14.33;85.74
77216;BME280;66210;53.282;9.864;2023-08-08T06:51:26;100256.00;;;14.44;85.98
77216;BME280;66210;53.282;9.864;2023-08-08T06:53:53;100247.63;;;14.49;84.82
77216;BME280;66210;53.282;9.864;2023-08-08T06:56:19;100241.88;;;14.58;84.37
77216;BME280;66210;53.282;9.864;2023-08-08T06:58:46;100247.13;;;14.66;84.74
77216;BME280;66210;53.282;9.864;2023-08-08T07:01:13;100243.97;;;14.76;84.56
77216;BME280;66210;53.282;9.864;2023-08-08T07:03:40;100234.75;;;14.84;83.43
77216;BME280;66210;53.282;9.864;2023-08-08T07:06:07;100245.94;;;14.89;83.31
77216;BME280;66210;53.282;9.864;2023-08-08T07:08:34;100238.34;;;14.94;83.27
77216;BME280;66210;53.282;9.864;2023-08-08T07:11:01;100233.50;;;15.08;83.46
77216;BME280;66210;53.282;9.864;2023-08-08T07:13:28;100244.84;;;15.21;83.60
77216;BME280;66210;53.282;9.864;2023-08-08T07:15:55;100235.50;;;15.23;82.76
77216;BME280;66210;53.282;9.864;2023-08-08T07:18:22;100227.91;;;15.27;82.29
77216;BME280;66210;53.282;9.864;2023-08-08T07:20:49;100229.66;;;15.30;82.02
77216;BME280;66210;53.282;9.864;2023-08-08T07:23:16;100240.06;;;15.39;82.36
77216;BME280;66210;53.282;9.864;2023-08-08T07:25:43;100237.56;;;15.42;81.54
77216;BME280;66210;53.282;9.864;2023-08-08T07:28:10;100231.59;;;15.42;82.28
77216;BME280;66210;53.282;9.864;2023-08-08T07:30:37;100238.53;;;15.49;82.43
77216;BME280;66210;53.282;9.864;2023-08-08T07:33:04;100227.44;;;15.48;81.81
77216;BME280;66210;53.282;9.864;2023-08-08T07:35:32;100235.06;;;15.47;81.90
77216;BME280;66210;53.282;9.864;2023-08-08T07:37:59;100219.69;;;15.44;81.35
77216;BME280;66210;53.282;9.864;2023-08-08T07:40:26;100231.75;;;15.51;81.30
77216;BME280;66210;53.282;9.864;2023-08-08T07:42:53;100222.47;;;15.57;80.79
77216;BME280;66210;53.282;9.864;2023-08-08T07:45:20;100209.66;;;15.57;79.79
77216;BME280;66210;53.282;9.864;2023-08-08T07:47:47;100219.16;;;15.63;79.18
77216;BME280;66210;53.282;9.864;2023-08-08T07:50:14;100219.25;;;15.69;79.64
77216;BME280;66210;53.282;9.864;2023-08-08T07:52:41;100209.22;;;15.78;79.23
77216;BME280;66210;53.282;9.864;2023-08-08T07:55:08;100208.44;;;15.84;78.72
77216;BME280;66210;53.282;9.864;2023-08-08T07:57:35;100216.97;;;15.85;78.36
77216;BME280;66210;53.282;9.864;2023-08-08T08:00:03;100222.09;;;15.85;78.33
77216;BME280;66210;53.282;9.864;2023-08-08T08:02:42;100223.75;;;15.81;78.71
77216;BME280;66210;53.282;9.864;2023-08-08T08:05:09;100212.56;;;15.76;78.90
77216;BME280;66210;53.282;9.864;2023-08-08T08:07:37;100220.09;;;15.68;79.23
77216;BME280;66210;53.282;9.864;2023-08-08T08:10:07;100224.28;;;15.65;79.31
77216;BME280;66210;53.282;9.864;2023-08-08T08:12:36;100199.31;;;15.51;79.71
77216;BME280;66210;53.282;9.864;2023-08-08T08:15:03;100206.94;;;15.48;79.95
77216;BME280;66210;53.282;9.864;2023-08-08T08:17:33;100221.56;;;15.54;80.66
77216;BME280;66210;53.282;9.864;2023-08-08T08:20:00;100215.47;;;15.49;80.32
77216;BME280;66210;53.282;9.864;2023-08-08T08:22:27;100214.63;;;15.48;80.08
77216;BME280;66210;53.282;9.864;2023-08-08T08:24:54;100226.50;;;15.43;80.15
77216;BME280;66210;53.282;9.864;2023-08-08T08:27:21;100211.72;;;15.28;80.66
77216;BME280;66210;53.282;9.864;2023-08-08T08:29:49;100229.53;;;15.24;81.72
77216;BME280;66210;53.282;9.864;2023-08-08T08:32:16;100202.59;;;14.95;84.14
77216;BME280;66210;53.282;9.864;2023-08-08T08:34:44;100217.03;;;14.95;84.15
77216;BME280;66210;53.282;9.864;2023-08-08T08:37:11;100230.69;;;14.94;84.94
77216;BME280;66210;53.282;9.864;2023-08-08T08:39:38;100228.13;;;14.94;84.60
77216;BME280;66210;53.282;9.864;2023-08-08T08:42:06;100228.97;;;14.94;84.86
77216;BME280;66210;53.282;9.864;2023-08-08T08:44:34;100231.59;;;14.96;85.29
77216;BME280;66210;53.282;9.864;2023-08-08T08:47:02;100228.19;;;14.97;84.97
77216;BME280;66210;53.282;9.864;2023-08-08T08:49:30;100235.00;;;14.96;85.33
77216;BME280;66210;53.282;9.864;2023-08-08T08:51:59;100239.31;;;14.99;84.80
77216;BME280;66210;53.282;9.864;2023-08-08T08:54:29;100230.72;;;14.95;84.30
77216;BME280;66210;53.282;9.864;2023-08-08T08:56:57;100209.19;;;14.86;84.17
77216;BME280;66210;53.282;9.864;2023-08-08T08:59:24;100235.00;;;14.96;83.84
77216;BME280;66210;53.282;9.864;2023-08-08T09:01:51;100231.50;;;14.93;83.74
77216;BME280;66210;53.282;9.864;2023-08-08T09:04:20;100232.50;;;15.00;83.44
77216;BME280;66210;53.282;9.864;2023-08-08T09:06:48;100231.81;;;15.07;83.16
77216;BME280;66210;53.282;9.864;2023-08-08T09:09:17;100225.19;;;15.18;83.44
77216;BME280;66210;53.282;9.864;2023-08-08T09:11:45;100235.84;;;15.41;82.09
77216;BME280;66210;53.282;9.864;2023-08-08T09:14:20;100229.41;;;15.63;81.58
77216;BME280;66210;53.282;9.864;2023-08-08T09:16:48;100228.31;;;15.99;81.77
77216;BME280;66210;53.282;9.864;2023-08-08T09:19:16;100223.16;;;16.55;79.12
77216;BME280;66210;53.282;9.864;2023-08-08T09:21:45;100220.59;;;17.27;76.07
77216;BME280;66210;53.282;9.864;2023-08-08T09:24:12;100202.97;;;17.64;74.25
77216;BME280;66210;53.282;9.864;2023-08-08T09:26:40;100216.66;;;17.63;72.88
77216;BME280;66210;53.282;9.864;2023-08-08T09:29:07;100213.97;;;17.49;73.36
77216;BME280;66210;53.282;9.864;2023-08-08T09:31:35;100224.88;;;17.27;73.86
77216;BME280;66210;53.282;9.864;2023-08-08T09:34:03;100226.16;;;16.89;75.17
77216;BME280;66210;53.282;9.864;2023-08-08T09:36:31;100224.84;;;16.53;76.19
77216;BME280;66210;53.282;9.864;2023-08-08T09:39:00;100231.38;;;16.33;77.45
77216;BME280;66210;53.282;9.864;2023-08-08T09:41:27;100246.38;;;16.07;78.69
77216;BME280;66210;53.282;9.864;2023-08-08T09:43:54;100243.47;;;15.87;79.84
77216;BME280;66210;53.282;9.864;2023-08-08T09:46:22;100239.84;;;15.72;80.64
77216;BME280;66210;53.282;9.864;2023-08-08T09:48:49;100247.25;;;15.58;82.18
77216;BME280;66210;53.282;9.864;2023-08-08T09:51:16;100245.34;;;15.48;82.39
77216;BME280;66210;53.282;9.864;2023-08-08T09:53:44;100247.84;;;15.44;81.99
77216;BME280;66210;53.282;9.864;2023-08-08T09:56:13;100245.22;;;15.41;82.66
77216;BME280;66210;53.282;9.864;2023-08-08T09:58:42;100237.34;;;15.30;83.52
77216;BME280;66210;53.282;9.864;2023-08-08T10:01:10;100239.06;;;15.31;83.64
77216;BME280;66210;53.282;9.864;2023-08-08T10:03:37;100263.59;;;15.20;85.01
77216;BME280;66210;53.282;9.864;2023-08-08T10:06:04;100282.13;;;15.08;84.13
77216;BME280;66210;53.282;9.864;2023-08-08T10:08:32;100279.25;;;14.92;83.74
77216;BME280;66210;53.282;9.864;2023-08-08T10:10:59;100296.81;;;14.77;83.93
77216;BME280;66210;53.282;9.864;2023-08-08T10:13:26;100293.16;;;14.64;84.57
77216;BME280;66210;53.282;9.864;2023-08-08T10:15:54;100291.06;;;14.49;84.54
77216;BME280;66210;53.282;9.864;2023-08-08T10:18:22;100281.34;;;14.33;85.08
77216;BME280;66210;53.282;9.864;2023-08-08T10:20:51;100286.06;;;14.18;85.31
77216;BME280;66210;53.282;9.864;2023-08-08T10:23:18;100285.75;;;14.05;85.47
77216;BME280;66210;53.282;9.864;2023-08-08T10:25:47;100279.56;;;13.96;86.44
77216;BME280;66210;53.282;9.864;2023-08-08T10:28:16;100276.19;;;13.97;86.90
77216;BME280;66210;53.282;9.864;2023-08-08T10:30:56;100271.88;;;13.94;86.90
77216;BME280;66210;53.282;9.864;2023-08-08T10:33:28;100242.63;;;13.83;87.07
77216;BME280;66210;53.282;9.864;2023-08-08T10:36:04;100253.91;;;13.91;87.43
77216;BME280;66210;53.282;9.864;2023-08-08T10:41:10;100238.56;;;13.89;86.82
77216;BME280;66210;53.282;9.864;2023-08-08T10:43:38;100237.75;;;13.90;86.82
77216;BME280;66210;53.282;9.864;2023-08-08T10:46:06;100238.75;;;13.97;87.70
77216;BME280;66210;53.282;9.864;2023-08-08T10:48:54;100235.78;;;14.17;87.35
77216;BME280;66210;53.282;9.864;2023-08-08T10:51:21;100222.31;;;14.60;88.68
77216;BME280;66210;53.282;9.864;2023-08-08T10:53:51;100219.19;;;15.16;89.20
77216;BME280;66210;53.282;9.864;2023-08-08T10:56:19;100231.44;;;15.83;90.27
77216;BME280;66210;53.282;9.864;2023-08-08T10:58:49;100224.28;;;16.16;86.14
77216;BME280;66210;53.282;9.864;2023-08-08T11:01:16;100232.94;;;16.23;84.78
77216;BME280;66210;53.282;9.864;2023-08-08T11:03:45;100220.59;;;15.97;84.44
77216;BME280;66210;53.282;9.864;2023-08-08T11:06:13;100243.22;;;15.71;84.43
77216;BME280;66210;53.282;9.864;2023-08-08T11:08:40;100218.97;;;15.52;83.81
77216;BME280;66210;53.282;9.864;2023-08-08T11:11:07;100202.59;;;15.44;85.93
77216;BME280;66210;53.282;9.864;2023-08-08T11:13:33;100206.59;;;15.74;86.58
77216;BME280;66210;53.282;9.864;2023-08-08T11:16:00;100206.84;;;15.91;85.36
77216;BME280;66210;53.282;9.864;2023-08-08T11:18:30;100201.88;;;16.02;84.39
77216;BME280;66210;53.282;9.864;2023-08-08T11:20:57;100208.25;;;16.28;84.40
77216;BME280;66210;53.282;9.864;2023-08-08T11:23:45;100195.09;;;16.69;83.11
77216;BME280;66210;53.282;9.864;2023-08-08T11:26:12;100195.56;;;17.08;82.82
77216;BME280;66210;53.282;9.864;2023-08-08T11:28:51;100198.47;;;17.41;79.68
77216;BME280;66210;53.282;9.864;2023-08-08T11:31:21;100194.47;;;17.73;76.89
77216;BME280;66210;53.282;9.864;2023-08-08T11:33:53;100200.69;;;17.96;77.42
77216;BME280;66210;53.282;9.864;2023-08-08T11:36:20;100195.69;;;18.19;76.96
77216;BME280;66210;53.282;9.864;2023-08-08T11:38:49;100172.66;;;18.36;75.58
77216;BME280;66210;53.282;9.864;2023-08-08T11:41:19;100171.94;;;18.71;75.25
77216;BME280;66210;53.282;9.864;2023-08-08T11:43:47;100195.28;;;19.16;73.39
77216;BME280;66210;53.282;9.864;2023-08-08T11:46:15;100191.88;;;19.34;72.33
77216;BME280;66210;53.282;9.864;2023-08-08T11:48:41;100186.72;;;19.47;71.72
77216;BME280;66210;53.282;9.864;2023-08-08T11:51:08;100179.00;;;19.53;72.09
77216;BME280;66210;53.282;9.864;2023-08-08T11:53:36;100182.47;;;19.72;71.99
77216;BME280;66210;53.282;9.864;2023-08-08T11:56:03;100163.56;;;19.60;70.61
77216;BME280;66210;53.282;9.864;2023-08-08T11:58:30;100167.84;;;19.42;69.40
77216;BME280;66210;53.282;9.864;2023-08-08T12:00:58;100180.72;;;19.28;69.16
77216;BME280;66210;53.282;9.864;2023-08-08T12:03:26;100197.81;;;19.02;68.98
77216;BME280;66210;53.282;9.864;2023-08-08T12:05:54;100197.66;;;18.69;69.77
77216;BME280;66210;53.282;9.864;2023-08-08T12:08:21;100191.53;;;18.40;70.72
77216;BME280;66210;53.282;9.864;2023-08-08T12:10:52;100193.19;;;18.33;71.17
77216;BME280;66210;53.282;9.864;2023-08-08T12:13:22;100193.13;;;18.16;71.57
77216;BME280;66210;53.282;9.864;2023-08-08T12:15:49;100196.41;;;17.97;71.98
77216;BME280;66210;53.282;9.864;2023-08-08T12:18:18;100184.25;;;17.76;70.50
77216;BME280;66210;53.282;9.864;2023-08-08T12:20:45;100184.19;;;17.73;72.45
77216;BME280;66210;53.282;9.864;2023-08-08T12:23:12;100173.03;;;17.71;73.61
77216;BME280;66210;53.282;9.864;2023-08-08T12:25:38;100179.03;;;17.68;74.66
77216;BME280;66210;53.282;9.864;2023-08-08T12:28:05;100176.59;;;17.82;73.65
77216;BME280;66210;53.282;9.864;2023-08-08T12:30:32;100180.16;;;18.01;74.18
77216;BME280;66210;53.282;9.864;2023-08-08T12:33:00;100158.03;;;18.29;71.23
77216;BME280;66210;53.282;9.864;2023-08-08T12:35:26;100169.34;;;18.69;67.62
77216;BME280;66210;53.282;9.864;2023-08-08T12:37:53;100181.50;;;18.98;66.68
77216;BME280;66210;53.282;9.864;2023-08-08T12:40:20;100184.94;;;19.00;66.99
77216;BME280;66210;53.282;9.864;2023-08-08T12:42:47;100184.09;;;19.09;65.84
77216;BME280;66210;53.282;9.864;2023-08-08T12:45:14;100167.75;;;18.93;65.48
77216;BME280;66210;53.282;9.864;2023-08-08T12:47:41;100158.25;;;18.77;65.62
77216;BME280;66210;53.282;9.864;2023-08-08T12:50:08;100174.59;;;18.94;65.43
77216;BME280;66210;53.282;9.864;2023-08-08T12:52:34;100163.44;;;18.87;64.77
77216;BME280;66210;53.282;9.864;2023-08-08T12:55:02;100177.81;;;18.44;64.67